createdAt,value
2022-08-07T00:00:28.073Z,17.80
2022-08-07T00:02:57.011Z,17.80
2022-08-07T00:05:26.211Z,17.90
2022-08-07T00:08:00.218Z,17.80
2022-08-07T00:10:31.651Z,18.00
2022-08-07T00:13:09.661Z,17.70
2022-08-07T00:15:53.396Z,17.40
2022-08-07T00:18:25.284Z,17.70
2022-08-07T00:20:57.590Z,17.60
2022-08-07T00:23:31.223Z,17.70
2022-08-07T00:26:13.014Z,17.70
2022-08-07T00:28:56.515Z,17.80
2022-08-07T00:31:38.078Z,17.90
2022-08-07T00:34:10.684Z,17.60
2022-08-07T00:36:43.053Z,17.70
2022-08-07T00:39:16.478Z,17.60
2022-08-07T00:42:04.915Z,17.80
2022-08-07T00:44:34.009Z,17.50
2022-08-07T00:47:03.878Z,17.60
2022-08-07T00:50:19.509Z,17.70
2022-08-07T00:52:23.107Z,17.80
2022-08-07T00:54:54.218Z,17.70
2022-08-07T00:57:25.128Z,17.80
2022-08-07T00:59:54.413Z,17.70
2022-08-07T01:02:29.081Z,17.60
2022-08-07T01:04:59.089Z,17.70
2022-08-07T01:07:30.845Z,17.90
2022-08-07T01:10:06.279Z,17.60
2022-08-07T01:12:53.337Z,17.80
2022-08-07T01:15:35.647Z,17.80
2022-08-07T01:18:17.168Z,17.90
2022-08-07T01:21:04.290Z,18.00
2022-08-07T01:23:46.973Z,17.70
2022-08-07T01:26:19.532Z,17.70
2022-08-07T01:28:51.125Z,17.90
2022-08-07T01:31:27.941Z,17.90
2022-08-07T01:34:10.533Z,17.80
2022-08-07T01:36:44.363Z,17.80
2022-08-07T01:39:25.194Z,17.60
2022-08-07T01:42:40.044Z,17.40
2022-08-07T01:45:00.534Z,17.50
2022-08-07T01:48:18.892Z,17.50
2022-08-07T01:50:28.594Z,17.50
2022-08-07T01:53:08.767Z,17.60
2022-08-07T01:55:45.183Z,17.70
2022-08-07T01:58:29.286Z,17.50
2022-08-07T02:01:25.144Z,17.80
2022-08-07T02:03:58.878Z,17.70
2022-08-07T02:06:32.517Z,17.70
2022-08-07T02:09:11.747Z,17.60
2022-08-07T02:12:17.825Z,17.60
2022-08-07T02:14:58.405Z,17.40
2022-08-07T02:17:37.147Z,17.40
2022-08-07T02:20:17.047Z,17.40
2022-08-07T02:22:47.229Z,17.30
2022-08-07T02:26:10.810Z,17.40
2022-08-07T02:28:24.487Z,17.50
2022-08-07T02:30:54.858Z,17.60
2022-08-07T02:33:32.808Z,17.10
2022-08-07T02:36:28.442Z,17.00
2022-08-07T02:39:09.238Z,17.20
2022-08-07T02:41:54.170Z,17.20
2022-08-07T02:44:27.719Z,17.10
2022-08-07T02:47:06.356Z,17.20
2022-08-07T02:49:57.965Z,17.00
2022-08-07T02:52:32.334Z,16.90
2022-08-07T02:55:05.889Z,17.00
2022-08-07T02:57:59.752Z,17.20
2022-08-07T03:00:30.555Z,17.20
2022-08-07T03:03:00.539Z,17.20
2022-08-07T03:05:37.916Z,17.30
2022-08-07T03:08:10.463Z,17.30
2022-08-07T03:10:46.476Z,17.20
2022-08-07T03:13:20.803Z,16.90
2022-08-07T03:15:56.226Z,17.00
2022-08-07T03:18:34.743Z,16.90
2022-08-07T03:21:08.774Z,16.80
2022-08-07T03:24:20.965Z,17.00
2022-08-07T03:26:34.928Z,16.90
2022-08-07T03:29:14.744Z,17.00
2022-08-07T03:31:49.821Z,16.90
2022-08-07T03:34:22.056Z,16.70
2022-08-07T03:36:57.414Z,17.00
2022-08-07T03:39:46.069Z,16.80
2022-08-07T03:42:19.893Z,16.80
2022-08-07T03:44:53.482Z,16.90
2022-08-07T03:47:28.027Z,16.80
2022-08-07T03:49:59.675Z,16.70
2022-08-07T03:52:34.278Z,16.80
2022-08-07T03:55:07.822Z,16.70
2022-08-07T03:58:33.471Z,16.90
2022-08-07T04:00:36.905Z,17.20
2022-08-07T04:03:06.722Z,17.00
2022-08-07T04:05:42.471Z,16.90
2022-08-07T04:08:20.947Z,16.80
2022-08-07T04:10:54.755Z,16.80
2022-08-07T04:14:33.243Z,16.80
2022-08-07T04:16:32.703Z,16.70
2022-08-07T04:19:12.798Z,16.90
2022-08-07T04:21:58.748Z,16.90
2022-08-07T04:24:34.096Z,16.70
2022-08-07T04:27:20.566Z,16.90
2022-08-07T04:30:01.588Z,16.90
2022-08-07T04:32:44.913Z,16.90
2022-08-07T04:35:18.094Z,17.00
2022-08-07T04:38:03.275Z,17.00
2022-08-07T04:40:52.159Z,17.00
2022-08-07T04:44:13.118Z,17.00
2022-08-07T04:47:03.860Z,17.00
2022-08-07T04:49:38.494Z,17.10
2022-08-07T04:52:15.432Z,17.00
2022-08-07T04:54:54.205Z,16.90
2022-08-07T04:58:13.691Z,17.20
2022-08-07T05:00:26.731Z,17.40
2022-08-07T05:03:17.124Z,17.40
2022-08-07T05:06:16.474Z,17.20
2022-08-07T05:09:01.143Z,17.10
2022-08-07T05:11:57.767Z,17.10
2022-08-07T05:14:56.442Z,17.20
2022-08-07T05:17:51.549Z,17.10
2022-08-07T05:20:10.297Z,17.30
2022-08-07T05:22:45.474Z,17.30
2022-08-07T05:25:25.584Z,17.30
2022-08-07T05:28:20.221Z,17.40
2022-08-07T05:30:53.435Z,17.40
2022-08-07T05:33:23.265Z,17.20
2022-08-07T05:35:53.201Z,17.20
2022-08-07T05:39:01.140Z,17.00
2022-08-07T05:41:16.929Z,16.90
2022-08-07T05:44:12.345Z,17.20
2022-08-07T05:46:44.388Z,17.00
2022-08-07T05:49:14.438Z,17.00
2022-08-07T05:51:47.547Z,17.10
2022-08-07T05:54:44.069Z,17.10
2022-08-07T05:57:11.767Z,17.20
2022-08-07T05:59:58.042Z,17.00
2022-08-07T06:02:32.649Z,17.00
2022-08-07T06:05:08.164Z,16.90
2022-08-07T06:08:14.109Z,17.10
2022-08-07T06:10:31.171Z,17.30
2022-08-07T06:13:02.205Z,17.40
2022-08-07T06:15:41.939Z,17.30
2022-08-07T06:18:14.535Z,17.50
2022-08-07T06:20:50.699Z,17.60
2022-08-07T06:24:37.058Z,17.30
2022-08-07T06:26:27.922Z,17.70
2022-08-07T06:29:01.024Z,17.80
2022-08-07T06:31:38.829Z,17.90
2022-08-07T06:34:19.572Z,17.80
2022-08-07T06:36:51.850Z,17.90
2022-08-07T06:40:15.859Z,18.10
2022-08-07T06:42:19.407Z,17.90
2022-08-07T06:45:13.379Z,17.90
2022-08-07T06:47:58.790Z,18.10
2022-08-07T06:50:43.364Z,18.10
2022-08-07T06:53:49.282Z,18.10
2022-08-07T06:56:14.727Z,18.10
2022-08-07T07:00:12.603Z,18.20
2022-08-07T07:01:44.056Z,18.10
2022-08-07T07:04:28.140Z,18.40
2022-08-07T07:07:19.418Z,18.40
2022-08-07T07:09:52.083Z,18.50
2022-08-07T07:12:31.442Z,18.50
2022-08-07T07:15:24.218Z,18.70
2022-08-07T07:18:05.519Z,18.50
2022-08-07T07:20:37.888Z,18.40
2022-08-07T07:24:10.987Z,18.50
2022-08-07T07:26:32.619Z,18.40
2022-08-07T07:29:56.955Z,18.70
2022-08-07T07:31:51.554Z,18.60
2022-08-07T07:34:31.921Z,18.60
2022-08-07T07:37:14.273Z,18.70
2022-08-07T07:39:55.310Z,18.80
2022-08-07T07:42:32.824Z,18.70
2022-08-07T07:45:04.633Z,18.90
2022-08-07T07:47:51.704Z,18.80
2022-08-07T07:50:34.296Z,18.80
2022-08-07T07:53:20.401Z,18.90
2022-08-07T07:56:00.661Z,18.90
2022-08-07T07:58:40.614Z,19.10
2022-08-07T08:02:03.336Z,19.20
2022-08-07T08:04:10.299Z,19.10
2022-08-07T08:06:52.018Z,19.30
2022-08-07T08:09:24.187Z,19.30
2022-08-07T08:12:02.035Z,19.20
2022-08-07T08:14:34.440Z,19.20
2022-08-07T08:17:56.737Z,19.30
2022-08-07T08:20:18.198Z,19.40
2022-08-07T08:23:09.988Z,19.60
2022-08-07T08:27:20.508Z,19.70
2022-08-07T08:28:49.193Z,19.50
2022-08-07T08:31:30.273Z,19.90
2022-08-07T08:34:27.087Z,19.90
2022-08-07T08:36:59.727Z,19.90
2022-08-07T08:39:39.299Z,20.00
2022-08-07T08:42:25.765Z,19.90
2022-08-07T08:45:04.815Z,20.20
2022-08-07T08:47:52.099Z,20.50
2022-08-07T08:50:35.345Z,20.20
2022-08-07T08:53:19.247Z,20.20
2022-08-07T08:55:55.095Z,20.20
2022-08-07T08:58:36.063Z,20.10
2022-08-07T09:01:15.188Z,20.50
2022-08-07T09:03:55.325Z,20.40
2022-08-07T09:06:36.751Z,20.50
2022-08-07T09:09:21.152Z,20.60
2022-08-07T09:12:20.016Z,20.60
2022-08-07T09:16:24.320Z,20.60
2022-08-07T09:18:11.475Z,20.90
2022-08-07T09:20:58.630Z,20.80
2022-08-07T09:24:54.825Z,20.80
2022-08-07T09:26:47.894Z,21.00
2022-08-07T09:30:05.170Z,20.80
2022-08-07T09:32:26.757Z,20.90
2022-08-07T09:36:05.103Z,21.20
2022-08-07T09:38:10.888Z,21.30
2022-08-07T09:40:51.989Z,21.40
2022-08-07T09:43:40.515Z,21.70
2022-08-07T09:47:51.296Z,21.20
2022-08-07T09:50:02.499Z,21.70
2022-08-07T09:52:43.651Z,21.70
2022-08-07T09:55:29.264Z,21.60
2022-08-07T09:58:42.426Z,21.50
2022-08-07T10:01:51.647Z,21.40
2022-08-07T10:04:32.813Z,21.90
2022-08-07T10:07:25.554Z,21.90
2022-08-07T10:10:21.964Z,22.10
2022-08-07T10:13:29.738Z,22.50
2022-08-07T10:16:21.796Z,22.30
2022-08-07T10:19:13.085Z,22.00
2022-08-07T10:22:15.553Z,22.20
2022-08-07T10:25:01.044Z,22.30
2022-08-07T10:27:47.607Z,22.00
2022-08-07T10:30:20.827Z,22.00
2022-08-07T10:33:19.991Z,22.10
2022-08-07T10:36:29.765Z,21.80
2022-08-07T10:39:04.431Z,22.00
2022-08-07T10:41:52.809Z,22.10
2022-08-07T10:44:38.283Z,22.40
2022-08-07T10:47:26.815Z,22.50
2022-08-07T10:50:08.307Z,22.60
2022-08-07T10:52:51.285Z,22.50
2022-08-07T10:55:36.909Z,22.30
2022-08-07T10:58:40.169Z,22.30
2022-08-07T11:01:51.418Z,22.20
2022-08-07T11:04:37.766Z,22.30
2022-08-07T11:07:56.247Z,23.00
2022-08-07T11:10:12.811Z,22.80
2022-08-07T11:12:49.727Z,22.50
2022-08-07T11:15:35.514Z,22.40
2022-08-07T11:18:10.508Z,22.70
2022-08-07T11:20:49.449Z,22.30
2022-08-07T11:23:30.438Z,22.60
2022-08-07T11:26:13.339Z,22.50
2022-08-07T11:28:55.416Z,22.60
2022-08-07T11:31:30.471Z,22.40
2022-08-07T11:34:12.703Z,22.50
2022-08-07T11:36:54.232Z,22.90
2022-08-07T11:40:00.386Z,22.70
2022-08-07T11:42:41.895Z,23.00
2022-08-07T11:45:20.620Z,23.50
2022-08-07T11:48:18.261Z,23.70
2022-08-07T11:51:10.148Z,23.80
2022-08-07T11:54:09.731Z,24.20
2022-08-07T11:56:56.270Z,24.10
2022-08-07T12:00:19.288Z,24.20
2022-08-07T12:03:41.282Z,24.30
2022-08-07T12:06:39.224Z,24.10
2022-08-07T12:09:16.731Z,24.40
2022-08-07T12:12:10.395Z,24.50
2022-08-07T12:14:55.613Z,24.40
2022-08-07T12:17:38.446Z,24.30
2022-08-07T12:20:20.048Z,24.60
2022-08-07T12:24:05.439Z,24.20
2022-08-07T12:26:40.569Z,24.60
2022-08-07T12:29:29.378Z,24.70
2022-08-07T12:32:15.338Z,24.90
2022-08-07T12:34:49.305Z,25.00
2022-08-07T12:37:28.511Z,25.20
2022-08-07T12:40:36.416Z,25.20
2022-08-07T12:43:09.568Z,25.50
2022-08-07T12:45:52.305Z,26.10
2022-08-07T12:48:51.913Z,25.70
2022-08-07T12:51:22.969Z,25.70
2022-08-07T12:54:37.900Z,26.10
2022-08-07T12:57:07.168Z,25.70
2022-08-07T12:59:55.475Z,24.70
2022-08-07T13:02:49.657Z,25.70
2022-08-07T13:06:04.716Z,25.30
2022-08-07T13:08:42.859Z,25.90
2022-08-07T13:12:02.763Z,25.50
2022-08-07T13:14:33.386Z,25.40
2022-08-07T13:17:06.770Z,25.50
2022-08-07T13:19:50.482Z,26.00
2022-08-07T13:22:31.024Z,25.40
2022-08-07T13:25:04.036Z,25.90
2022-08-07T13:28:10.789Z,26.50
2022-08-07T13:30:40.296Z,26.30
2022-08-07T13:34:31.779Z,26.20
2022-08-07T13:36:25.661Z,26.90
2022-08-07T13:39:04.960Z,27.10
2022-08-07T13:41:47.586Z,26.30
2022-08-07T13:44:25.896Z,26.70
2022-08-07T13:46:59.447Z,25.50
2022-08-07T13:50:33.462Z,25.60
2022-08-07T13:52:30.709Z,24.90
2022-08-07T13:55:10.976Z,25.80
2022-08-07T13:57:59.047Z,25.90
2022-08-07T14:00:50.694Z,25.50
2022-08-07T14:03:30.083Z,26.60
2022-08-07T14:06:14.488Z,26.60
2022-08-07T14:08:53.737Z,26.80
2022-08-07T14:11:25.490Z,26.10
2022-08-07T14:14:02.993Z,27.00
2022-08-07T14:16:35.183Z,26.90
2022-08-07T14:19:17.844Z,27.00
2022-08-07T14:22:10.781Z,27.00
2022-08-07T14:24:46.642Z,26.10
2022-08-07T14:28:10.464Z,25.70
2022-08-07T14:33:01.732Z,25.90
2022-08-07T14:35:44.832Z,25.50
2022-08-07T14:38:26.369Z,25.50
2022-08-07T14:41:04.276Z,25.20
2022-08-07T14:43:57.987Z,25.70
2022-08-07T14:46:31.357Z,26.10
2022-08-07T14:49:55.738Z,25.50
2022-08-07T14:52:04.844Z,25.70
2022-08-07T14:54:43.192Z,25.50
2022-08-07T14:57:19.613Z,25.90
2022-08-07T15:00:03.442Z,26.00
2022-08-07T15:02:37.383Z,25.70
2022-08-07T15:05:20.253Z,25.20
2022-08-07T15:07:51.885Z,24.90
2022-08-07T15:10:26.434Z,25.30
2022-08-07T15:13:00.799Z,25.10
2022-08-07T15:15:38.638Z,24.60
2022-08-07T15:18:14.561Z,24.70
2022-08-07T15:25:02.575Z,25.10
2022-08-07T15:26:44.229Z,24.90
2022-08-07T15:30:10.284Z,25.10
2022-08-07T15:32:10.059Z,24.90
2022-08-07T15:34:50.510Z,24.80
2022-08-07T15:37:27.941Z,24.90
2022-08-07T15:39:59.561Z,24.50
2022-08-07T15:42:51.706Z,24.60
2022-08-07T15:45:56.812Z,24.60
2022-08-07T15:51:17.979Z,24.90
2022-08-07T15:53:52.770Z,24.80
2022-08-07T15:56:33.099Z,25.00
2022-08-07T15:59:05.685Z,24.50
2022-08-07T16:01:41.054Z,24.70
2022-08-07T16:04:14.682Z,24.30
2022-08-07T16:06:50.550Z,24.70
2022-08-07T16:09:24.043Z,24.60
2022-08-07T16:12:25.115Z,24.50
2022-08-07T16:15:07.725Z,24.70
2022-08-07T16:18:01.599Z,24.30
2022-08-07T16:20:44.271Z,24.30
2022-08-07T16:23:54.603Z,24.10
2022-08-07T16:26:59.249Z,24.10
2022-08-07T16:30:11.802Z,24.10
2022-08-07T16:34:02.579Z,23.80
2022-08-07T16:36:19.799Z,23.60
2022-08-07T16:39:06.009Z,23.50
2022-08-07T16:41:54.389Z,23.60
2022-08-07T16:45:14.195Z,23.40
2022-08-07T16:48:09.785Z,23.40
2022-08-07T16:51:20.349Z,23.40
2022-08-07T16:54:19.510Z,23.40
2022-08-07T16:57:03.829Z,23.30
2022-08-07T16:59:46.029Z,23.10
2022-08-07T17:03:04.908Z,23.10
2022-08-07T17:06:19.486Z,22.90
2022-08-07T17:09:10.372Z,23.10
2022-08-07T17:12:01.917Z,23.00
2022-08-07T17:14:32.080Z,23.00
2022-08-07T17:17:06.822Z,22.90
2022-08-07T17:20:02.762Z,23.00
2022-08-07T17:22:37.847Z,22.90
2022-08-07T17:25:14.205Z,22.70
2022-08-07T17:27:58.712Z,22.80
2022-08-07T17:30:32.671Z,22.40
2022-08-07T17:34:15.401Z,22.40
2022-08-07T17:36:20.716Z,22.60
2022-08-07T17:39:01.597Z,22.70
2022-08-07T17:42:03.914Z,22.70
2022-08-07T17:44:45.510Z,22.60
2022-08-07T17:47:38.290Z,22.50
2022-08-07T17:50:19.000Z,22.10
2022-08-07T17:52:55.296Z,22.20
2022-08-07T17:56:01.026Z,21.90
2022-08-07T17:58:31.247Z,21.90
2022-08-07T18:01:20.839Z,22.00
2022-08-07T18:04:07.405Z,22.20
2022-08-07T18:06:43.239Z,22.50
2022-08-07T18:09:48.245Z,22.40
2022-08-07T18:12:27.923Z,22.60
2022-08-07T18:15:08.539Z,22.50
2022-08-07T18:18:47.599Z,22.60
2022-08-07T18:21:08.229Z,22.50
2022-08-07T18:23:50.722Z,22.30
2022-08-07T18:26:37.750Z,22.10
2022-08-07T18:30:08.444Z,21.60
2022-08-07T18:32:22.526Z,21.30
2022-08-07T18:35:10.354Z,21.40
2022-08-07T18:38:56.910Z,21.20
2022-08-07T18:41:08.081Z,21.20
2022-08-07T18:43:50.431Z,20.80
2022-08-07T18:46:43.221Z,20.70
2022-08-07T18:50:34.960Z,20.60
2022-08-07T18:52:41.164Z,20.30
2022-08-07T18:55:43.150Z,20.40
2022-08-07T18:58:43.455Z,20.70
2022-08-07T19:02:19.779Z,20.40
2022-08-07T19:04:38.907Z,20.30
2022-08-07T19:07:34.235Z,20.40
2022-08-07T19:10:18.206Z,20.00
2022-08-07T19:12:58.319Z,19.80
2022-08-07T19:16:04.956Z,19.60
2022-08-07T19:18:44.598Z,19.50
2022-08-07T19:21:44.122Z,19.60
2022-08-07T19:24:30.915Z,19.60
2022-08-07T19:28:58.070Z,19.60
2022-08-07T19:30:58.092Z,19.40
2022-08-07T19:32:47.749Z,19.20
2022-08-07T19:35:24.508Z,19.10
2022-08-07T19:37:58.212Z,19.00
2022-08-07T19:40:34.606Z,18.80
2022-08-07T19:43:12.737Z,18.80
2022-08-07T19:46:06.079Z,18.90
2022-08-07T19:48:42.865Z,18.80
2022-08-07T19:51:19.282Z,18.60
2022-08-07T19:54:33.413Z,18.40
2022-08-07T19:58:02.556Z,18.40
2022-08-07T19:59:41.055Z,18.60
2022-08-07T20:02:18.967Z,18.40
2022-08-07T20:04:49.233Z,18.30
2022-08-07T20:07:45.626Z,18.20
2022-08-07T20:10:37.865Z,18.20
2022-08-07T20:13:06.329Z,18.10
2022-08-07T20:15:37.442Z,18.10
2022-08-07T20:18:14.698Z,18.00
2022-08-07T20:20:47.118Z,18.00
2022-08-07T20:23:41.737Z,18.10
2022-08-07T20:26:11.933Z,17.90
2022-08-07T20:28:47.221Z,17.80
2022-08-07T20:31:21.317Z,17.80
2022-08-07T20:33:56.328Z,17.70
2022-08-07T20:36:29.633Z,17.60
2022-08-07T20:39:17.791Z,17.70
2022-08-07T20:41:51.759Z,17.60
2022-08-07T20:44:28.426Z,17.60
2022-08-07T20:47:05.896Z,17.50
2022-08-07T20:49:59.363Z,17.50
2022-08-07T20:52:51.722Z,17.90
2022-08-07T20:55:25.398Z,17.90
2022-08-07T20:58:03.491Z,17.80
2022-08-07T21:00:42.830Z,17.50
2022-08-07T21:03:15.523Z,17.20
2022-08-07T21:05:56.335Z,17.10
2022-08-07T21:08:38.101Z,16.90
2022-08-07T21:11:14.407Z,16.90
2022-08-07T21:14:20.087Z,16.80
2022-08-07T21:16:56.753Z,16.70
2022-08-07T21:19:51.072Z,16.70
2022-08-07T21:22:28.722Z,16.70
2022-08-07T21:25:12.197Z,17.10
2022-08-07T21:28:01.686Z,17.30
2022-08-07T21:30:45.323Z,17.40
2022-08-07T21:33:21.328Z,16.90
2022-08-07T21:36:05.629Z,16.80
2022-08-07T21:38:45.350Z,16.70
2022-08-07T21:41:24.523Z,16.70
2022-08-07T21:44:04.606Z,16.60
2022-08-07T21:46:41.901Z,16.70
2022-08-07T21:49:17.670Z,16.60
2022-08-07T21:52:09.100Z,16.50
2022-08-07T21:54:53.766Z,16.40
2022-08-07T21:57:44.955Z,16.30
2022-08-07T22:00:25.601Z,16.50
2022-08-07T22:03:06.211Z,17.00
2022-08-07T22:05:44.442Z,17.20
2022-08-07T22:08:18.757Z,16.70
2022-08-07T22:10:51.787Z,16.40
2022-08-07T22:13:24.231Z,16.30
2022-08-07T22:16:39.247Z,16.30
2022-08-07T22:19:09.368Z,16.20
2022-08-07T22:22:04.560Z,16.40
2022-08-07T22:24:37.061Z,16.40
2022-08-07T22:27:10.564Z,16.40
2022-08-07T22:29:50.239Z,16.30
2022-08-07T22:32:27.501Z,16.30
2022-08-07T22:34:59.267Z,16.30
2022-08-07T22:38:03.748Z,16.40
2022-08-07T22:40:30.639Z,16.20
2022-08-07T22:43:04.082Z,16.30
2022-08-07T22:46:21.939Z,16.20
2022-08-07T22:48:55.724Z,16.00
2022-08-07T22:51:57.410Z,15.50
2022-08-07T22:54:48.906Z,15.10
2022-08-07T22:57:43.577Z,15.00
2022-08-07T23:00:18.869Z,15.00
2022-08-07T23:03:09.269Z,14.90
2022-08-07T23:06:09.464Z,14.90
2022-08-07T23:08:58.486Z,14.90
2022-08-07T23:11:59.654Z,15.00
2022-08-07T23:14:48.749Z,15.00
2022-08-07T23:17:41.612Z,15.00
2022-08-07T23:20:51.581Z,15.10
2022-08-07T23:24:05.011Z,15.00
2022-08-07T23:26:26.120Z,15.10
2022-08-07T23:29:43.597Z,15.20
2022-08-07T23:34:19.954Z,15.10
2022-08-07T23:35:16.695Z,15.00
2022-08-07T23:38:14.411Z,14.70
2022-08-07T23:40:51.955Z,14.60
2022-08-07T23:43:51.279Z,14.50
2022-08-07T23:46:49.779Z,14.50
2022-08-07T23:49:50.211Z,14.40
2022-08-07T23:53:00.015Z,14.30
2022-08-07T23:55:47.097Z,14.10
2022-08-07T23:58:25.081Z,14.10
